Chandler, Chandler Municipal Airport (KCHD)

NameChandler Municipal Airport
CityChandler
CountryUnited States
ICAOKCHD
IATA
Altitude379 m
CoordinatesGoogle Map
Live Air TrafficLiveATC.net
METARKCHD 152047Z 00000KT 10SM BKN100 BKN200 19/M08 A3008
2018-12-15 20:47:00 Wind: North (0°) 0 m/s - Visibility: 16093.4 m - Temperature: 19 °C - Dew point: -8 °C - Humidity: 15.3% - Pressure: 1018.63 hPa

Sorry, no flights used the airport in this database.